createdAt,value
2023-03-29T05:17:22.112Z,76.06
2023-03-29T05:20:42.296Z,74.64
2023-03-29T05:24:45.399Z,73.96
2023-03-29T05:28:21.295Z,73.24
2023-03-29T05:31:42.569Z,72.57
2023-03-29T05:35:29.245Z,71.89
2023-03-29T05:39:34.526Z,71.34
2023-03-29T05:42:50.734Z,70.93
2023-03-29T05:46:50.108Z,70.57
2023-03-29T05:50:23.524Z,70.54
2023-03-29T05:53:52.380Z,70.10
2023-03-29T05:57:28.528Z,69.70
2023-03-29T06:01:32.419Z,69.48
2023-03-29T06:04:51.938Z,69.20
2023-03-29T06:08:52.455Z,68.81
2023-03-29T06:12:47.129Z,68.73
2023-03-29T06:16:13.521Z,68.53
2023-03-29T06:19:52.952Z,68.43
2023-03-29T06:23:13.263Z,68.38
2023-03-29T06:27:15.006Z,68.08
2023-03-29T06:30:36.493Z,67.47
2023-03-29T06:34:40.371Z,66.74
2023-03-29T06:38:00.958Z,66.26
2023-03-29T06:41:29.675Z,65.26
2023-03-29T06:45:17.049Z,64.06
2023-03-29T06:49:00.962Z,62.64
2023-03-29T06:52:21.742Z,61.41
2023-03-29T06:56:22.072Z,60.75
2023-03-29T06:59:43.925Z,59.65
2023-03-29T07:03:36.491Z,56.55
2023-03-29T07:07:54.438Z,53.42
2023-03-29T07:11:13.543Z,51.69
2023-03-29T07:14:34.406Z,50.11
2023-03-29T07:18:23.157Z,49.63
2023-03-29T07:22:01.206Z,48.29
2023-03-29T07:25:56.032Z,46.49
2023-03-29T07:29:12.347Z,46.94
2023-03-29T07:33:16.636Z,45.91
2023-03-29T07:36:38.539Z,46.41
2023-03-29T07:40:09.303Z,44.87
2023-03-29T07:44:32.898Z,43.90
2023-03-29T07:47:43.329Z,45.03
2023-03-29T07:51:46.365Z,46.47
2023-03-29T07:55:31.436Z,47.68
2023-03-29T07:59:10.128Z,46.68
2023-03-29T08:02:19.307Z,47.53
2023-03-29T08:06:09.811Z,47.53
2023-03-29T08:09:45.123Z,48.46
2023-03-29T08:13:29.125Z,48.33
2023-03-29T08:17:33.115Z,49.74
2023-03-29T08:21:34.986Z,49.34
2023-03-29T08:25:13.289Z,50.14
2023-03-29T08:28:49.940Z,49.82
2023-03-29T08:32:15.334Z,49.59
2023-03-29T08:36:06.739Z,49.22
2023-03-29T08:39:30.176Z,49.52
2023-03-29T08:43:27.525Z,48.90
2023-03-29T08:47:58.318Z,48.53
2023-03-29T08:51:21.592Z,45.88
2023-03-29T08:55:11.756Z,46.42
2023-03-29T08:58:35.784Z,47.38
2023-03-29T09:02:26.229Z,47.42
2023-03-29T09:06:15.693Z,45.16
2023-03-29T09:10:00.870Z,43.42
2023-03-29T09:14:14.109Z,45.06
2023-03-29T09:17:40.528Z,43.85
2023-03-29T09:22:04.941Z,43.94
2023-03-29T09:25:21.276Z,41.57
2023-03-29T09:29:09.740Z,39.81
2023-03-29T09:32:44.263Z,41.68
2023-03-29T09:36:06.624Z,38.75
2023-03-29T09:39:53.321Z,38.98
2023-03-29T09:43:45.056Z,37.26
2023-03-29T09:47:26.013Z,36.80
2023-03-29T09:51:16.276Z,34.88
2023-03-29T09:54:32.662Z,33.99
2023-03-29T09:58:26.922Z,31.85
2023-03-29T10:01:48.426Z,33.03
2023-03-29T10:05:53.822Z,30.66
2023-03-29T10:09:24.191Z,29.58
2023-03-29T10:12:53.510Z,29.65
2023-03-29T10:16:42.452Z,29.68
2023-03-29T10:20:06.007Z,28.47
2023-03-29T10:24:12.146Z,27.68
2023-03-29T10:27:48.250Z,29.19
2023-03-29T10:31:08.474Z,28.77
2023-03-29T10:34:53.793Z,29.25
2023-03-29T10:38:51.083Z,27.50
2023-03-29T10:42:33.101Z,26.19
2023-03-29T10:46:12.494Z,26.43
2023-03-29T10:49:31.845Z,25.23
2023-03-29T10:53:34.431Z,26.23
2023-03-29T10:56:58.291Z,26.27
2023-03-29T11:00:35.790Z,26.24
2023-03-29T11:04:35.627Z,27.52
2023-03-29T11:08:33.915Z,29.54
2023-03-29T11:12:14.877Z,29.73
2023-03-29T11:15:38.658Z,29.62
2023-03-29T11:19:23.278Z,30.34
2023-03-29T11:22:34.098Z,30.87
2023-03-29T11:26:22.591Z,32.32
2023-03-29T11:30:21.061Z,30.93
2023-03-29T11:33:42.276Z,30.47
2023-03-29T11:37:32.238Z,32.01
2023-03-29T11:41:18.824Z,32.86
2023-03-29T11:45:06.607Z,33.69
2023-03-29T11:48:55.599Z,32.30
2023-03-29T11:52:39.816Z,32.53
2023-03-29T11:56:13.866Z,31.39
2023-03-29T11:59:44.548Z,32.07
2023-03-29T12:03:38.788Z,32.08
2023-03-29T12:07:30.516Z,30.99
2023-03-29T12:11:09.756Z,31.26
2023-03-29T12:14:28.207Z,32.03
2023-03-29T12:18:23.985Z,31.57
2023-03-29T12:21:36.732Z,31.85
2023-03-29T12:25:48.267Z,31.97
2023-03-29T12:29:10.298Z,30.65
2023-03-29T12:33:05.180Z,29.09
2023-03-29T12:36:23.283Z,29.25
2023-03-29T12:40:36.535Z,28.10
2023-03-29T12:44:12.834Z,27.61
2023-03-29T12:48:00.640Z,29.13
2023-03-29T12:51:41.488Z,30.22
2023-03-29T12:55:02.885Z,30.24
2023-03-29T12:58:57.346Z,29.20
2023-03-29T13:02:40.159Z,28.89
2023-03-29T13:06:34.779Z,28.03
2023-03-29T13:10:38.828Z,27.47
2023-03-29T13:14:07.398Z,27.02
2023-03-29T13:17:48.045Z,26.36
2023-03-29T13:21:33.966Z,27.59
2023-03-29T13:25:22.485Z,26.77
2023-03-29T13:28:47.435Z,27.13
2023-03-29T13:32:34.840Z,27.71
2023-03-29T13:36:02.203Z,28.34
2023-03-29T13:39:36.690Z,27.63
2023-03-29T13:43:31.016Z,26.61
2023-03-29T13:47:12.472Z,26.83
2023-03-29T13:50:19.569Z,27.23
2023-03-29T13:54:27.250Z,26.00
2023-03-29T13:58:07.337Z,26.56
2023-03-29T14:01:22.498Z,27.33
2023-03-29T14:05:20.654Z,27.35
2023-03-29T14:09:06.817Z,27.29
2023-03-29T14:12:39.508Z,27.58
2023-03-29T14:16:16.965Z,27.52
2023-03-29T14:19:59.541Z,27.31
2023-03-29T14:23:35.890Z,27.14
2023-03-29T14:26:55.353Z,27.71
2023-03-29T14:30:39.650Z,26.40
2023-03-29T14:34:34.252Z,25.89
2023-03-29T14:38:02.511Z,26.06
2023-03-29T14:42:03.926Z,25.35
2023-03-29T14:45:43.010Z,26.40
2023-03-29T14:49:03.980Z,27.39
2023-03-29T14:52:40.148Z,27.79
2023-03-29T14:56:26.470Z,27.79
2023-03-29T15:00:13.482Z,28.16
2023-03-29T15:04:14.860Z,27.96
2023-03-29T15:07:39.654Z,27.85
2023-03-29T15:11:30.979Z,28.24
2023-03-29T15:14:53.303Z,28.54
2023-03-29T15:18:46.847Z,29.09
2023-03-29T15:22:23.272Z,28.53
2023-03-29T15:25:56.020Z,29.61
2023-03-29T15:29:42.846Z,29.61
2023-03-29T15:33:23.263Z,30.06
2023-03-29T15:37:27.532Z,30.09
2023-03-29T15:40:45.634Z,30.28
2023-03-29T15:44:33.635Z,30.93
2023-03-29T15:48:42.961Z,31.15
2023-03-29T15:51:56.964Z,31.97
2023-03-29T15:55:31.432Z,31.71
2023-03-29T15:59:33.345Z,32.28
2023-03-29T16:03:13.018Z,32.34
2023-03-29T16:06:29.496Z,32.62
2023-03-29T16:10:15.066Z,32.24
2023-03-29T16:14:14.590Z,32.38
2023-03-29T16:17:28.328Z,32.81
2023-03-29T16:21:13.555Z,32.88
2023-03-29T16:25:01.422Z,32.34
2023-03-29T16:28:34.189Z,33.10
2023-03-29T16:32:35.734Z,33.50
2023-03-29T16:35:54.294Z,33.79
2023-03-29T16:39:42.620Z,33.90
2023-03-29T16:43:18.728Z,34.63
2023-03-29T16:47:04.216Z,34.20
2023-03-29T16:50:41.027Z,34.17
2023-03-29T16:54:31.717Z,34.39
2023-03-29T16:58:20.716Z,34.87
2023-03-29T17:01:40.979Z,36.08
2023-03-29T17:05:48.369Z,37.17
2023-03-29T17:09:24.611Z,37.64
2023-03-29T17:12:41.065Z,37.78
2023-03-29T17:16:25.752Z,38.06
2023-03-29T17:20:14.122Z,39.23
2023-03-29T17:23:45.810Z,39.71
2023-03-29T17:27:30.445Z,40.26
2023-03-29T17:31:34.246Z,40.55
2023-03-29T17:35:17.606Z,40.81
2023-03-29T17:38:34.076Z,41.22
2023-03-29T17:42:08.452Z,41.60
2023-03-29T17:46:09.991Z,41.91
2023-03-29T17:49:28.580Z,42.56
2023-03-29T17:53:28.184Z,43.11
2023-03-29T17:57:07.916Z,44.97
2023-03-29T18:00:38.659Z,45.31
2023-03-29T18:04:25.174Z,45.98
2023-03-29T18:07:50.290Z,45.78
2023-03-29T18:11:42.534Z,45.70
2023-03-29T18:15:01.180Z,46.10
2023-03-29T18:18:49.807Z,46.96
2023-03-29T18:22:35.848Z,47.18
2023-03-29T18:26:14.765Z,47.13
2023-03-29T18:29:31.496Z,46.55
2023-03-29T18:33:35.135Z,46.18
2023-03-29T18:36:46.847Z,46.67
2023-03-29T18:40:34.803Z,46.78
2023-03-29T18:44:27.400Z,46.75
2023-03-29T18:48:12.433Z,47.66
2023-03-29T18:51:34.870Z,48.13
2023-03-29T18:55:36.104Z,48.70
2023-03-29T18:59:13.791Z,49.25
2023-03-29T19:02:50.544Z,49.02
2023-03-29T19:06:12.934Z,48.89
2023-03-29T19:10:15.104Z,49.54
2023-03-29T19:13:51.961Z,49.78
2023-03-29T19:17:30.129Z,50.17
2023-03-29T19:20:53.990Z,49.97
2023-03-29T19:24:45.925Z,50.64
2023-03-29T19:28:24.329Z,50.59
2023-03-29T19:31:45.578Z,51.23
2023-03-29T19:35:38.282Z,51.41
2023-03-29T19:38:59.567Z,52.58
2023-03-29T19:43:01.719Z,51.83
2023-03-29T19:46:38.543Z,52.04
2023-03-29T19:50:16.395Z,52.52
2023-03-29T19:53:38.464Z,52.66
2023-03-29T19:57:40.418Z,52.67
2023-03-29T20:01:01.251Z,52.71
2023-03-29T20:04:44.051Z,52.98
2023-03-29T20:08:39.079Z,52.93
2023-03-29T20:12:09.772Z,52.83
2023-03-29T20:16:00.653Z,52.95
2023-03-29T20:19:24.812Z,52.91
2023-03-29T20:23:36.500Z,52.64
2023-03-29T20:27:05.076Z,52.69
2023-03-29T20:30:51.678Z,52.80
2023-03-29T20:34:02.428Z,52.93
2023-03-29T20:37:56.881Z,53.17
2023-03-29T20:41:46.844Z,53.24
2023-03-29T20:45:02.352Z,52.56
2023-03-29T20:48:53.468Z,51.18
2023-03-29T20:52:39.415Z,52.66
2023-03-29T20:56:02.274Z,52.90
2023-03-29T21:00:12.408Z,52.34
2023-03-29T21:03:39.393Z,53.75
2023-03-29T21:07:05.159Z,52.99
2023-03-29T21:11:07.504Z,52.92
2023-03-29T21:14:35.358Z,54.23
2023-03-29T21:18:05.871Z,54.20
2023-03-29T21:21:51.624Z,54.34
2023-03-29T21:25:37.554Z,54.33
2023-03-29T21:28:49.643Z,55.17
2023-03-29T21:32:26.412Z,55.25
2023-03-29T21:36:37.686Z,55.32
2023-03-29T21:40:07.590Z,54.82
2023-03-29T21:43:42.068Z,54.65
2023-03-29T21:47:21.764Z,54.75
2023-03-29T21:50:59.740Z,55.71
2023-03-29T21:54:34.294Z,55.46
2023-03-29T21:57:58.232Z,54.89
2023-03-29T22:01:32.968Z,54.20
2023-03-29T22:05:34.869Z,54.38
2023-03-29T22:09:13.601Z,55.71
2023-03-29T22:12:47.546Z,55.04
2023-03-29T22:16:16.725Z,54.74
2023-03-29T22:20:02.733Z,53.99
2023-03-29T22:23:49.981Z,54.11
2023-03-29T22:27:26.007Z,53.65
2023-03-29T22:31:08.025Z,53.73
2023-03-29T22:35:10.546Z,53.59
2023-03-29T22:38:51.980Z,53.35
2023-03-29T22:42:28.285Z,53.56
2023-03-29T22:45:47.041Z,53.31
2023-03-29T22:49:35.026Z,52.99
2023-03-29T22:53:09.911Z,52.99
2023-03-29T22:57:19.378Z,53.13
2023-03-29T23:00:31.225Z,53.23
2023-03-29T23:04:36.041Z,53.13
2023-03-29T23:08:10.913Z,52.72
2023-03-29T23:11:48.412Z,52.48
2023-03-29T23:15:31.613Z,52.49
2023-03-29T23:18:45.365Z,52.71
2023-03-29T23:22:46.864Z,52.79
2023-03-29T23:26:17.485Z,53.29
2023-03-29T23:29:45.365Z,53.13
2023-03-29T23:33:41.636Z,53.29
2023-03-29T23:37:15.556Z,53.30
2023-03-29T23:41:08.016Z,53.22
2023-03-29T23:44:41.342Z,53.39
2023-03-29T23:47:59.487Z,53.21
2023-03-29T23:51:45.078Z,53.50
2023-03-29T23:55:46.775Z,53.86
2023-03-29T23:59:05.638Z,54.16
